sensor_id;sensor_type;location;lat;lon;timestamp;P1;durP1;ratioP1;P2;durP2;ratioP2
20391;SDS011;10355;53.688;10.078;2022-12-05T00:00:45;16.60;;;8.95;;
20391;SDS011;10355;53.688;10.078;2022-12-05T00:03:28;21.48;;;9.50;;
20391;SDS011;10355;53.688;10.078;2022-12-05T00:06:11;16.48;;;8.93;;
20391;SDS011;10355;53.688;10.078;2022-12-05T00:08:54;21.85;;;10.43;;
20391;SDS011;10355;53.688;10.078;2022-12-05T00:11:39;17.00;;;8.55;;
20391;SDS011;10355;53.688;10.078;2022-12-05T00:14:23;19.52;;;9.32;;
20391;SDS011;10355;53.688;10.078;2022-12-05T00:17:06;19.40;;;9.75;;
20391;SDS011;10355;53.688;10.078;2022-12-05T00:19:49;20.30;;;9.68;;
20391;SDS011;10355;53.688;10.078;2022-12-05T00:22:37;19.75;;;8.93;;
20391;SDS011;10355;53.688;10.078;2022-12-05T00:25:20;16.40;;;8.82;;
20391;SDS011;10355;53.688;10.078;2022-12-05T00:28:04;18.50;;;9.30;;
20391;SDS011;10355;53.688;10.078;2022-12-05T00:30:47;19.17;;;9.65;;
20391;SDS011;10355;53.688;10.078;2022-12-05T00:33:30;18.45;;;9.75;;
20391;SDS011;10355;53.688;10.078;2022-12-05T00:36:13;18.83;;;9.55;;
20391;SDS011;10355;53.688;10.078;2022-12-05T00:38:57;16.17;;;8.68;;
20391;SDS011;10355;53.688;10.078;2022-12-05T00:41:40;15.80;;;8.70;;
20391;SDS011;10355;53.688;10.078;2022-12-05T00:44:24;16.05;;;8.13;;
20391;SDS011;10355;53.688;10.078;2022-12-05T00:47:07;15.20;;;8.63;;
20391;SDS011;10355;53.688;10.078;2022-12-05T00:49:50;16.48;;;8.38;;
20391;SDS011;10355;53.688;10.078;2022-12-05T00:52:33;15.57;;;7.80;;
20391;SDS011;10355;53.688;10.078;2022-12-05T00:55:15;15.43;;;8.32;;
20391;SDS011;10355;53.688;10.078;2022-12-05T00:57:58;14.40;;;7.82;;
20391;SDS011;10355;53.688;10.078;2022-12-05T01:00:42;15.70;;;7.95;;
20391;SDS011;10355;53.688;10.078;2022-12-05T01:03:25;15.95;;;8.02;;
20391;SDS011;10355;53.688;10.078;2022-12-05T01:06:08;13.32;;;7.28;;
20391;SDS011;10355;53.688;10.078;2022-12-05T01:08:51;14.02;;;7.68;;
20391;SDS011;10355;53.688;10.078;2022-12-05T01:11:34;14.00;;;7.35;;
20391;SDS011;10355;53.688;10.078;2022-12-05T01:14:22;13.85;;;7.63;;
20391;SDS011;10355;53.688;10.078;2022-12-05T01:17:07;14.75;;;7.93;;
20391;SDS011;10355;53.688;10.078;2022-12-05T01:19:49;13.60;;;7.70;;
20391;SDS011;10355;53.688;10.078;2022-12-05T01:22:32;12.32;;;7.18;;
20391;SDS011;10355;53.688;10.078;2022-12-05T01:25:15;15.52;;;7.80;;
20391;SDS011;10355;53.688;10.078;2022-12-05T01:27:57;15.32;;;7.68;;
20391;SDS011;10355;53.688;10.078;2022-12-05T01:30:41;13.63;;;7.45;;
20391;SDS011;10355;53.688;10.078;2022-12-05T01:33:25;13.02;;;6.85;;
20391;SDS011;10355;53.688;10.078;2022-12-05T01:36:08;12.15;;;6.82;;
20391;SDS011;10355;53.688;10.078;2022-12-05T01:38:51;11.50;;;6.88;;
20391;SDS011;10355;53.688;10.078;2022-12-05T01:41:35;12.68;;;7.15;;
20391;SDS011;10355;53.688;10.078;2022-12-05T01:47:19;16.40;;;8.40;;
20391;SDS011;10355;53.688;10.078;2022-12-05T01:50:06;14.75;;;7.18;;
20391;SDS011;10355;53.688;10.078;2022-12-05T01:52:49;14.30;;;7.55;;
20391;SDS011;10355;53.688;10.078;2022-12-05T01:55:32;13.68;;;7.82;;
20391;SDS011;10355;53.688;10.078;2022-12-05T01:58:16;15.88;;;7.40;;
20391;SDS011;10355;53.688;10.078;2022-12-05T02:00:59;15.65;;;7.95;;
20391;SDS011;10355;53.688;10.078;2022-12-05T02:03:41;14.68;;;7.82;;
20391;SDS011;10355;53.688;10.078;2022-12-05T02:06:27;15.68;;;7.97;;
20391;SDS011;10355;53.688;10.078;2022-12-05T02:09:10;17.15;;;8.35;;
20391;SDS011;10355;53.688;10.078;2022-12-05T02:11:53;17.38;;;8.20;;
20391;SDS011;10355;53.688;10.078;2022-12-05T02:14:38;16.05;;;8.05;;
20391;SDS011;10355;53.688;10.078;2022-12-05T02:17:26;17.35;;;9.00;;
20391;SDS011;10355;53.688;10.078;2022-12-05T02:20:16;17.83;;;8.68;;
20391;SDS011;10355;53.688;10.078;2022-12-05T02:23:08;17.48;;;8.20;;
20391;SDS011;10355;53.688;10.078;2022-12-05T02:26:03;17.70;;;8.68;;
20391;SDS011;10355;53.688;10.078;2022-12-05T02:28:57;16.88;;;8.95;;
20391;SDS011;10355;53.688;10.078;2022-12-05T02:31:47;18.35;;;9.15;;
20391;SDS011;10355;53.688;10.078;2022-12-05T02:34:33;17.65;;;9.07;;
20391;SDS011;10355;53.688;10.078;2022-12-05T02:37:19;18.15;;;8.95;;
20391;SDS011;10355;53.688;10.078;2022-12-05T02:40:06;19.73;;;8.85;;
20391;SDS011;10355;53.688;10.078;2022-12-05T02:42:53;17.15;;;8.68;;
20391;SDS011;10355;53.688;10.078;2022-12-05T02:45:37;17.33;;;8.35;;
20391;SDS011;10355;53.688;10.078;2022-12-05T02:48:22;19.55;;;8.85;;
20391;SDS011;10355;53.688;10.078;2022-12-05T02:51:09;17.15;;;8.55;;
20391;SDS011;10355;53.688;10.078;2022-12-05T02:53:55;18.60;;;8.48;;
20391;SDS011;10355;53.688;10.078;2022-12-05T02:56:39;19.58;;;8.82;;
20391;SDS011;10355;53.688;10.078;2022-12-05T02:59:22;20.38;;;8.85;;
20391;SDS011;10355;53.688;10.078;2022-12-05T03:02:06;16.83;;;8.63;;
20391;SDS011;10355;53.688;10.078;2022-12-05T03:04:50;16.83;;;8.52;;
20391;SDS011;10355;53.688;10.078;2022-12-05T03:07:33;17.92;;;8.90;;
20391;SDS011;10355;53.688;10.078;2022-12-05T03:10:18;18.67;;;8.68;;
20391;SDS011;10355;53.688;10.078;2022-12-05T03:13:04;18.45;;;8.55;;
20391;SDS011;10355;53.688;10.078;2022-12-05T03:15:49;17.85;;;8.82;;
20391;SDS011;10355;53.688;10.078;2022-12-05T03:18:35;17.02;;;9.07;;
20391;SDS011;10355;53.688;10.078;2022-12-05T03:21:23;16.35;;;8.57;;
20391;SDS011;10355;53.688;10.078;2022-12-05T03:24:08;15.18;;;8.25;;
20391;SDS011;10355;53.688;10.078;2022-12-05T03:26:54;17.95;;;8.98;;
20391;SDS011;10355;53.688;10.078;2022-12-05T03:29:38;17.52;;;8.63;;
20391;SDS011;10355;53.688;10.078;2022-12-05T03:32:25;18.77;;;8.70;;
20391;SDS011;10355;53.688;10.078;2022-12-05T03:35:10;17.50;;;8.23;;
20391;SDS011;10355;53.688;10.078;2022-12-05T03:37:57;16.75;;;8.45;;
20391;SDS011;10355;53.688;10.078;2022-12-05T03:40:41;17.23;;;8.45;;
20391;SDS011;10355;53.688;10.078;2022-12-05T03:43:27;16.60;;;8.15;;
20391;SDS011;10355;53.688;10.078;2022-12-05T03:46:13;19.15;;;8.93;;
20391;SDS011;10355;53.688;10.078;2022-12-05T03:48:59;18.63;;;9.55;;
20391;SDS011;10355;53.688;10.078;2022-12-05T03:51:46;18.35;;;9.13;;
20391;SDS011;10355;53.688;10.078;2022-12-05T03:54:35;18.48;;;9.65;;
20391;SDS011;10355;53.688;10.078;2022-12-05T03:57:19;20.38;;;9.35;;
20391;SDS011;10355;53.688;10.078;2022-12-05T04:00:04;18.67;;;9.40;;
20391;SDS011;10355;53.688;10.078;2022-12-05T04:02:48;18.08;;;9.23;;
20391;SDS011;10355;53.688;10.078;2022-12-05T04:05:34;19.48;;;9.63;;
20391;SDS011;10355;53.688;10.078;2022-12-05T04:08:20;19.88;;;9.48;;
20391;SDS011;10355;53.688;10.078;2022-12-05T04:11:06;23.23;;;9.88;;
20391;SDS011;10355;53.688;10.078;2022-12-05T04:13:52;20.33;;;10.30;;
20391;SDS011;10355;53.688;10.078;2022-12-05T04:16:36;22.73;;;10.35;;
20391;SDS011;10355;53.688;10.078;2022-12-05T04:19:38;22.52;;;10.63;;
20391;SDS011;10355;53.688;10.078;2022-12-05T04:22:40;24.90;;;10.80;;
20391;SDS011;10355;53.688;10.078;2022-12-05T04:25:23;22.65;;;10.68;;
20391;SDS011;10355;53.688;10.078;2022-12-05T04:28:18;21.83;;;10.40;;
20391;SDS011;10355;53.688;10.078;2022-12-05T04:31:04;23.73;;;10.85;;
20391;SDS011;10355;53.688;10.078;2022-12-05T04:33:49;24.50;;;11.05;;
20391;SDS011;10355;53.688;10.078;2022-12-05T04:36:34;21.40;;;10.55;;
20391;SDS011;10355;53.688;10.078;2022-12-05T04:39:20;25.85;;;10.80;;
20391;SDS011;10355;53.688;10.078;2022-12-05T04:42:06;23.80;;;10.27;;
20391;SDS011;10355;53.688;10.078;2022-12-05T04:44:52;22.92;;;11.18;;
20391;SDS011;10355;53.688;10.078;2022-12-05T04:47:36;22.58;;;10.13;;
20391;SDS011;10355;53.688;10.078;2022-12-05T04:50:20;26.13;;;11.15;;
20391;SDS011;10355;53.688;10.078;2022-12-05T04:53:04;27.27;;;11.45;;
20391;SDS011;10355;53.688;10.078;2022-12-05T04:55:48;24.58;;;10.32;;
20391;SDS011;10355;53.688;10.078;2022-12-05T04:58:32;28.40;;;11.88;;
20391;SDS011;10355;53.688;10.078;2022-12-05T05:01:17;22.98;;;11.18;;
20391;SDS011;10355;53.688;10.078;2022-12-05T05:04:04;24.08;;;10.60;;
20391;SDS011;10355;53.688;10.078;2022-12-05T05:06:48;25.10;;;11.30;;
20391;SDS011;10355;53.688;10.078;2022-12-05T05:09:31;25.42;;;10.93;;
20391;SDS011;10355;53.688;10.078;2022-12-05T05:12:14;22.55;;;10.00;;
20391;SDS011;10355;53.688;10.078;2022-12-05T05:14:59;25.15;;;10.55;;
20391;SDS011;10355;53.688;10.078;2022-12-05T05:17:44;20.50;;;10.10;;
20391;SDS011;10355;53.688;10.078;2022-12-05T05:20:26;22.92;;;10.25;;
20391;SDS011;10355;53.688;10.078;2022-12-05T05:23:09;25.45;;;11.45;;
20391;SDS011;10355;53.688;10.078;2022-12-05T05:25:52;22.33;;;10.30;;
20391;SDS011;10355;53.688;10.078;2022-12-05T05:28:35;23.92;;;10.82;;
20391;SDS011;10355;53.688;10.078;2022-12-05T05:31:18;24.73;;;11.13;;
20391;SDS011;10355;53.688;10.078;2022-12-05T05:34:02;25.90;;;10.95;;
20391;SDS011;10355;53.688;10.078;2022-12-05T05:36:50;25.65;;;10.68;;
20391;SDS011;10355;53.688;10.078;2022-12-05T05:39:33;25.10;;;11.23;;
20391;SDS011;10355;53.688;10.078;2022-12-05T05:42:15;27.55;;;11.05;;
20391;SDS011;10355;53.688;10.078;2022-12-05T05:44:58;28.48;;;12.20;;
20391;SDS011;10355;53.688;10.078;2022-12-05T05:47:41;27.30;;;11.35;;
20391;SDS011;10355;53.688;10.078;2022-12-05T05:50:25;31.33;;;11.20;;
20391;SDS011;10355;53.688;10.078;2022-12-05T05:53:08;28.27;;;11.25;;
20391;SDS011;10355;53.688;10.078;2022-12-05T05:55:50;27.60;;;11.43;;
20391;SDS011;10355;53.688;10.078;2022-12-05T05:58:33;26.73;;;11.68;;
20391;SDS011;10355;53.688;10.078;2022-12-05T06:01:16;28.17;;;11.15;;
20391;SDS011;10355;53.688;10.078;2022-12-05T06:04:00;30.05;;;11.60;;
20391;SDS011;10355;53.688;10.078;2022-12-05T06:06:45;30.67;;;11.45;;
20391;SDS011;10355;53.688;10.078;2022-12-05T06:09:28;29.73;;;11.75;;
20391;SDS011;10355;53.688;10.078;2022-12-05T06:12:10;27.52;;;11.38;;
20391;SDS011;10355;53.688;10.078;2022-12-05T06:14:53;31.60;;;11.90;;
20391;SDS011;10355;53.688;10.078;2022-12-05T06:17:36;27.73;;;11.48;;
20391;SDS011;10355;53.688;10.078;2022-12-05T06:20:19;29.33;;;12.05;;
20391;SDS011;10355;53.688;10.078;2022-12-05T06:23:03;32.08;;;12.15;;
20391;SDS011;10355;53.688;10.078;2022-12-05T06:25:46;27.88;;;11.90;;
20391;SDS011;10355;53.688;10.078;2022-12-05T06:28:29;29.30;;;11.98;;
20391;SDS011;10355;53.688;10.078;2022-12-05T06:31:13;31.42;;;13.10;;
20391;SDS011;10355;53.688;10.078;2022-12-05T06:33:58;37.70;;;13.00;;
20391;SDS011;10355;53.688;10.078;2022-12-05T06:36:41;33.17;;;12.13;;
20391;SDS011;10355;53.688;10.078;2022-12-05T06:39:25;31.17;;;12.52;;
20391;SDS011;10355;53.688;10.078;2022-12-05T06:42:08;30.67;;;12.02;;
20391;SDS011;10355;53.688;10.078;2022-12-05T06:44:51;25.50;;;11.82;;
20391;SDS011;10355;53.688;10.078;2022-12-05T06:47:34;32.60;;;12.02;;
20391;SDS011;10355;53.688;10.078;2022-12-05T06:50:16;30.40;;;11.63;;
20391;SDS011;10355;53.688;10.078;2022-12-05T06:52:59;30.20;;;11.45;;
20391;SDS011;10355;53.688;10.078;2022-12-05T06:55:43;30.40;;;12.10;;
20391;SDS011;10355;53.688;10.078;2022-12-05T06:58:26;32.05;;;11.55;;
20391;SDS011;10355;53.688;10.078;2022-12-05T07:01:10;31.55;;;11.88;;
20391;SDS011;10355;53.688;10.078;2022-12-05T07:04:11;34.13;;;12.98;;
20391;SDS011;10355;53.688;10.078;2022-12-05T07:06:54;35.85;;;13.30;;
20391;SDS011;10355;53.688;10.078;2022-12-05T07:09:37;36.25;;;12.50;;
20391;SDS011;10355;53.688;10.078;2022-12-05T07:12:35;34.03;;;13.25;;
20391;SDS011;10355;53.688;10.078;2022-12-05T07:15:18;35.50;;;13.32;;
20391;SDS011;10355;53.688;10.078;2022-12-05T07:18:01;38.50;;;13.82;;
20391;SDS011;10355;53.688;10.078;2022-12-05T07:20:43;36.65;;;14.10;;
20391;SDS011;10355;53.688;10.078;2022-12-05T07:23:46;35.28;;;13.02;;
20391;SDS011;10355;53.688;10.078;2022-12-05T07:26:30;31.48;;;12.40;;
20391;SDS011;10355;53.688;10.078;2022-12-05T07:29:14;28.65;;;12.02;;
20391;SDS011;10355;53.688;10.078;2022-12-05T07:31:57;28.48;;;11.48;;
20391;SDS011;10355;53.688;10.078;2022-12-05T07:34:40;31.02;;;11.68;;
20391;SDS011;10355;53.688;10.078;2022-12-05T07:37:23;32.90;;;12.05;;
20391;SDS011;10355;53.688;10.078;2022-12-05T07:40:06;30.60;;;11.82;;
20391;SDS011;10355;53.688;10.078;2022-12-05T07:42:49;29.70;;;11.80;;
20391;SDS011;10355;53.688;10.078;2022-12-05T07:45:35;29.70;;;11.73;;
20391;SDS011;10355;53.688;10.078;2022-12-05T07:48:17;30.25;;;11.65;;
20391;SDS011;10355;53.688;10.078;2022-12-05T07:51:00;31.42;;;12.00;;
20391;SDS011;10355;53.688;10.078;2022-12-05T07:53:44;28.48;;;11.40;;
20391;SDS011;10355;53.688;10.078;2022-12-05T07:56:26;31.95;;;12.05;;
20391;SDS011;10355;53.688;10.078;2022-12-05T07:59:09;31.13;;;12.35;;
20391;SDS011;10355;53.688;10.078;2022-12-05T08:01:53;36.60;;;12.98;;
20391;SDS011;10355;53.688;10.078;2022-12-05T08:04:36;31.17;;;11.88;;
20391;SDS011;10355;53.688;10.078;2022-12-05T08:07:19;28.50;;;11.93;;
20391;SDS011;10355;53.688;10.078;2022-12-05T08:10:02;29.27;;;11.40;;
20391;SDS011;10355;53.688;10.078;2022-12-05T08:12:45;29.90;;;11.55;;
20391;SDS011;10355;53.688;10.078;2022-12-05T08:15:28;29.25;;;11.93;;
20391;SDS011;10355;53.688;10.078;2022-12-05T08:18:12;27.45;;;11.32;;
20391;SDS011;10355;53.688;10.078;2022-12-05T08:20:55;31.20;;;11.05;;
20391;SDS011;10355;53.688;10.078;2022-12-05T08:23:38;28.92;;;11.20;;
20391;SDS011;10355;53.688;10.078;2022-12-05T08:26:21;25.73;;;11.90;;
20391;SDS011;10355;53.688;10.078;2022-12-05T08:29:06;24.98;;;11.40;;
20391;SDS011;10355;53.688;10.078;2022-12-05T08:31:50;27.58;;;11.32;;
20391;SDS011;10355;53.688;10.078;2022-12-05T08:34:34;27.45;;;11.10;;
20391;SDS011;10355;53.688;10.078;2022-12-05T08:37:16;29.07;;;11.33;;
20391;SDS011;10355;53.688;10.078;2022-12-05T08:39:59;25.92;;;11.05;;
20391;SDS011;10355;53.688;10.078;2022-12-05T08:42:42;29.42;;;11.52;;
20391;SDS011;10355;53.688;10.078;2022-12-05T08:45:25;31.13;;;11.98;;
20391;SDS011;10355;53.688;10.078;2022-12-05T08:48:08;29.23;;;11.00;;
20391;SDS011;10355;53.688;10.078;2022-12-05T08:50:52;26.88;;;10.63;;
20391;SDS011;10355;53.688;10.078;2022-12-05T08:53:35;27.20;;;11.02;;
20391;SDS011;10355;53.688;10.078;2022-12-05T08:56:24;26.15;;;10.77;;
20391;SDS011;10355;53.688;10.078;2022-12-05T08:59:08;27.85;;;10.63;;
20391;SDS011;10355;53.688;10.078;2022-12-05T09:01:50;31.88;;;11.98;;
20391;SDS011;10355;53.688;10.078;2022-12-05T09:04:33;32.60;;;11.82;;
20391;SDS011;10355;53.688;10.078;2022-12-05T09:07:17;27.67;;;11.30;;
20391;SDS011;10355;53.688;10.078;2022-12-05T09:10:00;29.35;;;11.60;;
20391;SDS011;10355;53.688;10.078;2022-12-05T09:12:43;32.85;;;12.60;;
20391;SDS011;10355;53.688;10.078;2022-12-05T09:15:26;32.50;;;12.45;;
20391;SDS011;10355;53.688;10.078;2022-12-05T09:18:08;28.75;;;11.50;;
20391;SDS011;10355;53.688;10.078;2022-12-05T09:20:53;35.40;;;13.48;;
20391;SDS011;10355;53.688;10.078;2022-12-05T09:23:37;29.80;;;12.27;;
20391;SDS011;10355;53.688;10.078;2022-12-05T09:26:21;32.60;;;12.32;;
20391;SDS011;10355;53.688;10.078;2022-12-05T09:29:04;37.55;;;13.45;;
20391;SDS011;10355;53.688;10.078;2022-12-05T09:31:55;38.05;;;13.57;;
20391;SDS011;10355;53.688;10.078;2022-12-05T09:34:38;39.13;;;13.15;;
20391;SDS011;10355;53.688;10.078;2022-12-05T09:37:21;36.08;;;12.60;;
20391;SDS011;10355;53.688;10.078;2022-12-05T09:40:21;36.40;;;13.10;;
20391;SDS011;10355;53.688;10.078;2022-12-05T09:43:04;34.95;;;12.70;;
20391;SDS011;10355;53.688;10.078;2022-12-05T09:45:50;40.83;;;13.45;;
20391;SDS011;10355;53.688;10.078;2022-12-05T09:48:35;35.65;;;12.45;;
20391;SDS011;10355;53.688;10.078;2022-12-05T09:51:21;35.58;;;13.07;;
20391;SDS011;10355;53.688;10.078;2022-12-05T09:54:04;38.28;;;13.20;;
20391;SDS011;10355;53.688;10.078;2022-12-05T09:56:49;36.97;;;12.50;;
20391;SDS011;10355;53.688;10.078;2022-12-05T09:59:33;34.83;;;12.80;;
20391;SDS011;10355;53.688;10.078;2022-12-05T10:02:18;30.10;;;11.20;;
20391;SDS011;10355;53.688;10.078;2022-12-05T10:05:04;31.65;;;12.25;;
20391;SDS011;10355;53.688;10.078;2022-12-05T10:07:51;30.67;;;11.50;;
20391;SDS011;10355;53.688;10.078;2022-12-05T10:10:39;32.33;;;11.65;;
20391;SDS011;10355;53.688;10.078;2022-12-05T10:13:29;29.48;;;10.55;;
20391;SDS011;10355;53.688;10.078;2022-12-05T10:16:15;33.15;;;11.63;;
20391;SDS011;10355;53.688;10.078;2022-12-05T10:19:01;34.05;;;12.18;;
20391;SDS011;10355;53.688;10.078;2022-12-05T10:21:46;29.88;;;11.82;;
20391;SDS011;10355;53.688;10.078;2022-12-05T10:24:32;28.95;;;11.48;;
20391;SDS011;10355;53.688;10.078;2022-12-05T10:27:17;29.88;;;11.10;;
20391;SDS011;10355;53.688;10.078;2022-12-05T10:30:03;29.95;;;11.73;;
20391;SDS011;10355;53.688;10.078;2022-12-05T10:32:48;30.27;;;10.70;;
20391;SDS011;10355;53.688;10.078;2022-12-05T10:35:33;30.98;;;11.82;;
20391;SDS011;10355;53.688;10.078;2022-12-05T10:38:18;31.38;;;11.85;;
20391;SDS011;10355;53.688;10.078;2022-12-05T10:41:04;32.38;;;11.90;;
20391;SDS011;10355;53.688;10.078;2022-12-05T10:43:48;34.15;;;11.63;;
20391;SDS011;10355;53.688;10.078;2022-12-05T10:46:32;33.60;;;11.75;;
20391;SDS011;10355;53.688;10.078;2022-12-05T10:49:15;31.40;;;11.35;;
20391;SDS011;10355;53.688;10.078;2022-12-05T10:51:57;34.85;;;12.05;;
20391;SDS011;10355;53.688;10.078;2022-12-05T10:54:42;33.20;;;11.90;;
20391;SDS011;10355;53.688;10.078;2022-12-05T10:57:26;35.63;;;12.38;;
20391;SDS011;10355;53.688;10.078;2022-12-05T11:00:11;33.00;;;12.05;;
20391;SDS011;10355;53.688;10.078;2022-12-05T11:02:57;27.85;;;11.27;;
20391;SDS011;10355;53.688;10.078;2022-12-05T11:05:41;28.85;;;11.45;;
20391;SDS011;10355;53.688;10.078;2022-12-05T11:08:24;33.42;;;12.48;;
20391;SDS011;10355;53.688;10.078;2022-12-05T11:11:28;31.33;;;12.13;;
20391;SDS011;10355;53.688;10.078;2022-12-05T11:14:19;30.50;;;11.73;;
20391;SDS011;10355;53.688;10.078;2022-12-05T11:17:03;29.33;;;10.98;;
20391;SDS011;10355;53.688;10.078;2022-12-05T11:19:48;24.50;;;10.40;;
20391;SDS011;10355;53.688;10.078;2022-12-05T11:22:32;28.55;;;11.32;;
20391;SDS011;10355;53.688;10.078;2022-12-05T11:25:22;30.02;;;10.40;;
20391;SDS011;10355;53.688;10.078;2022-12-05T11:28:22;28.02;;;10.15;;
20391;SDS011;10355;53.688;10.078;2022-12-05T11:31:09;27.52;;;10.52;;
20391;SDS011;10355;53.688;10.078;2022-12-05T11:34:02;28.27;;;11.02;;
20391;SDS011;10355;53.688;10.078;2022-12-05T11:36:47;26.02;;;10.25;;
20391;SDS011;10355;53.688;10.078;2022-12-05T11:39:31;24.55;;;9.55;;
20391;SDS011;10355;53.688;10.078;2022-12-05T11:42:20;23.63;;;9.93;;
20391;SDS011;10355;53.688;10.078;2022-12-05T11:45:11;21.70;;;9.30;;
20391;SDS011;10355;53.688;10.078;2022-12-05T11:48:08;23.30;;;8.98;;
20391;SDS011;10355;53.688;10.078;2022-12-05T11:50:59;27.73;;;9.80;;
20391;SDS011;10355;53.688;10.078;2022-12-05T11:53:54;25.38;;;9.35;;
20391;SDS011;10355;53.688;10.078;2022-12-05T11:56:40;20.00;;;9.02;;
20391;SDS011;10355;53.688;10.078;2022-12-05T11:59:31;23.35;;;9.60;;
20391;SDS011;10355;53.688;10.078;2022-12-05T12:02:19;23.63;;;9.77;;
20391;SDS011;10355;53.688;10.078;2022-12-05T12:05:07;23.88;;;9.40;;
20391;SDS011;10355;53.688;10.078;2022-12-05T12:07:57;22.23;;;9.35;;
20391;SDS011;10355;53.688;10.078;2022-12-05T12:10:46;23.33;;;9.55;;
20391;SDS011;10355;53.688;10.078;2022-12-05T12:13:34;20.25;;;9.27;;
20391;SDS011;10355;53.688;10.078;2022-12-05T12:16:25;20.33;;;8.52;;
20391;SDS011;10355;53.688;10.078;2022-12-05T12:19:13;22.48;;;9.38;;
20391;SDS011;10355;53.688;10.078;2022-12-05T12:22:01;23.80;;;10.05;;
20391;SDS011;10355;53.688;10.078;2022-12-05T12:24:51;24.00;;;9.43;;
20391;SDS011;10355;53.688;10.078;2022-12-05T12:27:41;25.42;;;8.88;;
20391;SDS011;10355;53.688;10.078;2022-12-05T12:30:27;20.90;;;8.85;;
20391;SDS011;10355;53.688;10.078;2022-12-05T12:33:14;22.17;;;8.57;;
20391;SDS011;10355;53.688;10.078;2022-12-05T12:36:11;18.85;;;8.63;;
20391;SDS011;10355;53.688;10.078;2022-12-05T12:39:02;19.70;;;9.40;;
20391;SDS011;10355;53.688;10.078;2022-12-05T12:44:59;21.10;;;9.05;;
20391;SDS011;10355;53.688;10.078;2022-12-05T12:47:52;22.70;;;8.88;;
20391;SDS011;10355;53.688;10.078;2022-12-05T12:50:41;21.90;;;8.82;;
20391;SDS011;10355;53.688;10.078;2022-12-05T12:56:30;21.13;;;9.02;;
20391;SDS011;10355;53.688;10.078;2022-12-05T12:59:23;22.65;;;9.35;;
20391;SDS011;10355;53.688;10.078;2022-12-05T13:02:13;24.08;;;9.30;;
20391;SDS011;10355;53.688;10.078;2022-12-05T13:04:59;22.48;;;8.93;;
20391;SDS011;10355;53.688;10.078;2022-12-05T13:07:44;20.65;;;8.40;;
20391;SDS011;10355;53.688;10.078;2022-12-05T13:10:30;21.17;;;8.57;;
20391;SDS011;10355;53.688;10.078;2022-12-05T13:13:17;20.33;;;9.15;;
20391;SDS011;10355;53.688;10.078;2022-12-05T13:16:01;18.42;;;8.98;;
20391;SDS011;10355;53.688;10.078;2022-12-05T13:18:48;19.73;;;9.18;;
20391;SDS011;10355;53.688;10.078;2022-12-05T13:21:31;21.67;;;8.60;;
20391;SDS011;10355;53.688;10.078;2022-12-05T13:24:14;22.27;;;8.32;;
20391;SDS011;10355;53.688;10.078;2022-12-05T13:26:59;16.67;;;8.23;;
20391;SDS011;10355;53.688;10.078;2022-12-05T13:29:47;20.52;;;9.27;;
20391;SDS011;10355;53.688;10.078;2022-12-05T13:32:32;19.70;;;8.20;;
20391;SDS011;10355;53.688;10.078;2022-12-05T13:35:17;21.27;;;8.98;;
20391;SDS011;10355;53.688;10.078;2022-12-05T13:38:19;16.85;;;7.88;;
20391;SDS011;10355;53.688;10.078;2022-12-05T13:41:20;20.73;;;8.75;;
20391;SDS011;10355;53.688;10.078;2022-12-05T13:44:24;18.58;;;8.30;;
20391;SDS011;10355;53.688;10.078;2022-12-05T13:47:24;19.15;;;8.05;;
20391;SDS011;10355;53.688;10.078;2022-12-05T13:50:09;16.65;;;8.05;;
20391;SDS011;10355;53.688;10.078;2022-12-05T13:52:58;16.13;;;8.25;;
20391;SDS011;10355;53.688;10.078;2022-12-05T13:55:53;19.50;;;8.50;;
20391;SDS011;10355;53.688;10.078;2022-12-05T13:58:46;14.43;;;7.30;;
20391;SDS011;10355;53.688;10.078;2022-12-05T14:07:37;16.42;;;8.02;;
20391;SDS011;10355;53.688;10.078;2022-12-05T14:10:23;18.60;;;8.13;;
20391;SDS011;10355;53.688;10.078;2022-12-05T14:13:41;17.42;;;8.23;;
20391;SDS011;10355;53.688;10.078;2022-12-05T14:19:36;18.38;;;8.90;;
20391;SDS011;10355;53.688;10.078;2022-12-05T14:22:31;15.20;;;7.43;;
20391;SDS011;10355;53.688;10.078;2022-12-05T14:25:21;18.52;;;8.20;;
20391;SDS011;10355;53.688;10.078;2022-12-05T14:28:11;17.83;;;8.23;;
20391;SDS011;10355;53.688;10.078;2022-12-05T14:31:02;16.08;;;7.35;;
20391;SDS011;10355;53.688;10.078;2022-12-05T14:34:02;19.30;;;8.25;;
20391;SDS011;10355;53.688;10.078;2022-12-05T14:36:52;18.77;;;8.52;;
20391;SDS011;10355;53.688;10.078;2022-12-05T14:39:37;18.67;;;8.30;;
20391;SDS011;10355;53.688;10.078;2022-12-05T14:42:35;16.95;;;7.53;;
20391;SDS011;10355;53.688;10.078;2022-12-05T14:45:23;15.23;;;7.50;;
20391;SDS011;10355;53.688;10.078;2022-12-05T14:48:27;14.52;;;7.38;;
20391;SDS011;10355;53.688;10.078;2022-12-05T14:54:10;15.00;;;6.95;;
20391;SDS011;10355;53.688;10.078;2022-12-05T14:56:58;14.00;;;6.97;;
20391;SDS011;10355;53.688;10.078;2022-12-05T14:59:45;18.80;;;8.55;;
20391;SDS011;10355;53.688;10.078;2022-12-05T15:02:32;17.67;;;8.55;;
20391;SDS011;10355;53.688;10.078;2022-12-05T15:05:19;19.10;;;8.73;;
20391;SDS011;10355;53.688;10.078;2022-12-05T15:08:03;17.92;;;8.45;;
20391;SDS011;10355;53.688;10.078;2022-12-05T15:10:47;16.33;;;7.30;;
20391;SDS011;10355;53.688;10.078;2022-12-05T15:13:31;13.68;;;6.90;;
20391;SDS011;10355;53.688;10.078;2022-12-05T15:16:15;13.68;;;6.90;;
20391;SDS011;10355;53.688;10.078;2022-12-05T15:19:01;16.35;;;7.30;;
20391;SDS011;10355;53.688;10.078;2022-12-05T15:21:50;14.32;;;7.40;;
20391;SDS011;10355;53.688;10.078;2022-12-05T15:24:35;14.77;;;7.25;;
20391;SDS011;10355;53.688;10.078;2022-12-05T15:27:18;12.60;;;6.75;;
20391;SDS011;10355;53.688;10.078;2022-12-05T15:30:02;11.48;;;6.35;;
20391;SDS011;10355;53.688;10.078;2022-12-05T15:32:46;13.55;;;6.82;;
20391;SDS011;10355;53.688;10.078;2022-12-05T15:35:30;15.05;;;6.85;;
20391;SDS011;10355;53.688;10.078;2022-12-05T15:38:17;12.32;;;6.57;;
20391;SDS011;10355;53.688;10.078;2022-12-05T15:41:13;11.48;;;5.90;;
20391;SDS011;10355;53.688;10.078;2022-12-05T15:43:57;12.88;;;6.30;;
20391;SDS011;10355;53.688;10.078;2022-12-05T15:46:40;12.63;;;6.05;;
20391;SDS011;10355;53.688;10.078;2022-12-05T15:49:24;12.13;;;5.82;;
20391;SDS011;10355;53.688;10.078;2022-12-05T15:52:18;11.07;;;6.13;;
20391;SDS011;10355;53.688;10.078;2022-12-05T15:55:06;12.27;;;5.88;;
20391;SDS011;10355;53.688;10.078;2022-12-05T15:57:51;13.00;;;6.30;;
20391;SDS011;10355;53.688;10.078;2022-12-05T16:00:36;14.48;;;6.53;;
20391;SDS011;10355;53.688;10.078;2022-12-05T16:03:21;10.13;;;5.85;;
20391;SDS011;10355;53.688;10.078;2022-12-05T16:06:08;12.00;;;6.10;;
20391;SDS011;10355;53.688;10.078;2022-12-05T16:08:52;12.75;;;6.07;;
20391;SDS011;10355;53.688;10.078;2022-12-05T16:11:37;11.48;;;6.03;;
20391;SDS011;10355;53.688;10.078;2022-12-05T16:14:21;9.48;;;5.18;;
20391;SDS011;10355;53.688;10.078;2022-12-05T16:17:24;11.68;;;5.47;;
20391;SDS011;10355;53.688;10.078;2022-12-05T16:20:11;12.35;;;5.95;;
20391;SDS011;10355;53.688;10.078;2022-12-05T16:23:03;10.95;;;5.25;;
20391;SDS011;10355;53.688;10.078;2022-12-05T16:25:46;9.95;;;5.60;;